Terminal Aerodrome Forecast
Issued by NWS

Home | Current Version | Previous Version | Graphics & Text | Print | Product List | Glossary Off
Versions: 1 2 3 4 5 6 7 8 9 10 11 12 13 14 15 16 17 18 19 20 21 22 23 24 25 26 27 28 29 30 31 32 33 34 35 36 37 38 39 40 41 42

246
FTUS43 KDDC 271706 AAB
TAFHYS
TAF AMD
KHYS 271706Z 2717/2812 14008KT P6SM OVC009
     FM271800 14010KT P6SM BKN015
     FM272000 14009KT P6SM VCTS BKN050CB
     FM280400 17006KT P6SM BKN150=

USA.gov is the U.S. government's official web portal to all federal, state and local government web resources and services.